Terminal Aerodrome Forecast
Issued by NWS

Home | Current Version | Previous Version | Text Only | Print | Product List | Glossary On
Versions: 1 2 3 4 5 6 7 8 9 10 11 12 13
000
FTUS46 KSEW 290520
TAFOLM
TAF
KOLM 290520Z 2906/3006 20006KT P6SM -SHRA SCT025 OVC035
      TEMPO 2906/2910 OVC025
     FM291000 22005KT P6SM OVC020
     FM291900 24008KT P6SM BKN035
     FM292200 27010KT P6SM SCT035 BKN040
     FM300300 20006KT P6SM SCT035 SCT040=

USA.gov is the U.S. government's official web portal to all federal, state and local government web resources and services.